Pagrindinis puslapis
METAR-TAF:

METAR-TAF

Oro uostai :

Ki Vestas, Florida, Jungtinės Amerikos Valstijos

platuma: 24-34-46N, ilguma: 081-41-02W, Aukštis: 1 m

Dabartinis oras

Ataskaita buvo paskelbta 19 minutes, ne 05:53 UTC
Vėjas 7 kt iš Šiaurės/Šiaurės Rytų
Temperatūra 29°C
Drėgmė 74%
Slėgis 1013 hPa
Matomumas: 16.1 km
Giedras dangus

METAR: KNQX 220553Z AUTO 02007KT 10SM CLR 29/24 A2990 RMK AO2 SLP122 T02890244 10311 20283 58010 $

Laikas: 02:12 (06:12 UTC)

Prognozė

Prognozė galioja nuo 21 metu 23 UTC su 22 metu 23 UTC
Vėjas 4 kt nuo kintamojo kryptimis
Matomumas 10 km arba daugiau
Mažai debesys ne aukštis 3000 ft
Nuo 22 metu 1600 UTC
Vėjas 8 kt iš Rytų/Pietryčių
Matomumas: 2210 m
Išsisklaidę debesys ne aukštis 2500 ft

TAF: KNQX 2123/2223 VRB04KT 9999 FEW030 QNH2985INS FM221600 12008KT 9999 SCT025 QNH2992INS AUTOMATED SENSOR METWATCH 2202 TIL 2210 TX33/2219Z TN27/2211Z FN20056

Orai ataskaitas ir orų prognozės (METAR, TAF).

turimą stotys yra geltonos ir raudonos taškus žemėlapyje.

Perkelti pele per norėdami pamatyti stoties vardą.

Tada spustelėkite, norėdami matyti oro stebėjimo ir prognozės.

Norėdami pakeisti žemėlapį: spustelėkite ant žalios mygtukų su juodo kryžiaus žemyn,; žalią mygtuką su brūkšneliu, jei norite nutolinti; arba žalių rodyklių gretimoms žemėlapius.


METAR-TAF: